3CL3 weather

World Trade Center Heliport
Long Beach, California, United States

Public forecast

Using degrees Fahrenheit for public forecast. Weather courtesy of forecast.io.

Closest aviation weather report (METAR) to World Trade Center Heliport

Closest report is Long Beach /Daugherty Field/ Airport, 3.4 nm (6.3 km) NE. Retrieved 2020/06/06 22:53 UTC (16 minutes ago):

KLGB 062253Z 19007KT 10SM CLR 21/11 A2993 RMK AO2 SLP134 T02060111

Closest aviation forecast (TAF) to World Trade Center Heliport

Closest forecast is Long Beach /Daugherty Field/ Airport, 3.4 nm (6.3 km) NE. Retrieved 2020/06/06 18:45 UTC (4 hours ago):

TAF KLGB 061742Z 0618/0718 VRB03KT P6SM FEW050 FM062000 20010KT P6SM FEW050 FM070000 28010KT P6SM SKC FM070800 VRB03KT P6SM SCT015